sensor_id;sensor_type;location;lat;lon;timestamp;pressure;altitude;pressure_sealevel;temperature;humidity
79331;BME280;68797;49.782;19.054;2023-09-19T00:00:18;96604.41;;;18.98;77.92
79331;BME280;68797;49.782;19.054;2023-09-19T00:03:08;96601.72;;;18.98;78.55
79331;BME280;68797;49.782;19.054;2023-09-19T00:05:37;96590.72;;;19.01;78.50
79331;BME280;68797;49.782;19.054;2023-09-19T00:08:11;96571.88;;;18.90;79.09
79331;BME280;68797;49.782;19.054;2023-09-19T00:10:47;96583.88;;;18.97;79.13
79331;BME280;68797;49.782;19.054;2023-09-19T00:13:14;96579.97;;;19.01;78.95
79331;BME280;68797;49.782;19.054;2023-09-19T00:15:45;96555.91;;;18.99;77.56
79331;BME280;68797;49.782;19.054;2023-09-19T00:18:16;96543.31;;;19.00;77.84
79331;BME280;68797;49.782;19.054;2023-09-19T00:20:45;96530.97;;;18.97;78.52
79331;BME280;68797;49.782;19.054;2023-09-19T00:23:15;96546.50;;;19.16;77.57
79331;BME280;68797;49.782;19.054;2023-09-19T00:25:42;96544.81;;;19.15;76.81
79331;BME280;68797;49.782;19.054;2023-09-19T00:28:09;96536.25;;;19.10;77.57
79331;BME280;68797;49.782;19.054;2023-09-19T00:30:36;96542.84;;;19.17;76.49
79331;BME280;68797;49.782;19.054;2023-09-19T00:33:05;96549.00;;;19.19;77.75
79331;BME280;68797;49.782;19.054;2023-09-19T00:35:34;96548.34;;;19.15;77.27
79331;BME280;68797;49.782;19.054;2023-09-19T00:38:01;96539.56;;;19.13;77.69
79331;BME280;68797;49.782;19.054;2023-09-19T00:40:29;96538.31;;;19.17;77.58
79331;BME280;68797;49.782;19.054;2023-09-19T00:43:00;96532.22;;;19.15;77.68
79331;BME280;68797;49.782;19.054;2023-09-19T00:45:28;96529.06;;;19.22;78.23
79331;BME280;68797;49.782;19.054;2023-09-19T00:47:56;96515.22;;;19.15;78.26
79331;BME280;68797;49.782;19.054;2023-09-19T00:50:24;96510.81;;;19.14;78.29
79331;BME280;68797;49.782;19.054;2023-09-19T00:52:54;96522.81;;;19.21;79.09
79331;BME280;68797;49.782;19.054;2023-09-19T00:55:25;96521.00;;;19.22;77.87
79331;BME280;68797;49.782;19.054;2023-09-19T00:57:52;96512.31;;;19.18;78.39
79331;BME280;68797;49.782;19.054;2023-09-19T01:00:20;96512.06;;;19.21;78.16
79331;BME280;68797;49.782;19.054;2023-09-19T01:02:47;96519.41;;;19.19;77.81
79331;BME280;68797;49.782;19.054;2023-09-19T01:05:14;96513.25;;;19.17;78.25
79331;BME280;68797;49.782;19.054;2023-09-19T01:07:42;96514.88;;;19.20;78.31
79331;BME280;68797;49.782;19.054;2023-09-19T01:10:14;96511.69;;;19.26;78.10
79331;BME280;68797;49.782;19.054;2023-09-19T01:15:21;96516.22;;;19.25;78.14
79331;BME280;68797;49.782;19.054;2023-09-19T01:17:53;96509.63;;;19.29;79.00
79331;BME280;68797;49.782;19.054;2023-09-19T01:20:33;96496.19;;;19.18;78.66
79331;BME280;68797;49.782;19.054;2023-09-19T01:23:05;96505.47;;;19.25;79.03
79331;BME280;68797;49.782;19.054;2023-09-19T01:30:16;96498.38;;;19.24;78.96
79331;BME280;68797;49.782;19.054;2023-09-19T01:32:13;96491.66;;;19.19;79.13
79331;BME280;68797;49.782;19.054;2023-09-19T01:34:48;96485.41;;;19.18;78.72
79331;BME280;68797;49.782;19.054;2023-09-19T01:37:21;96490.91;;;19.28;78.36
79331;BME280;68797;49.782;19.054;2023-09-19T01:39:56;96473.41;;;19.11;79.83
79331;BME280;68797;49.782;19.054;2023-09-19T01:48:43;96493.50;;;19.18;79.92
79331;BME280;68797;49.782;19.054;2023-09-19T01:51:42;96480.97;;;19.06;79.66
79331;BME280;68797;49.782;19.054;2023-09-19T01:54:12;96485.63;;;19.15;79.65
79331;BME280;68797;49.782;19.054;2023-09-19T01:56:50;96479.41;;;19.14;79.07
79331;BME280;68797;49.782;19.054;2023-09-19T01:59:24;96482.34;;;19.11;80.51
79331;BME280;68797;49.782;19.054;2023-09-19T02:01:54;96496.03;;;19.08;79.86
79331;BME280;68797;49.782;19.054;2023-09-19T02:04:22;96497.38;;;19.14;79.29
79331;BME280;68797;49.782;19.054;2023-09-19T02:06:49;96490.03;;;19.05;80.00
79331;BME280;68797;49.782;19.054;2023-09-19T02:09:16;96496.91;;;19.09;79.64
79331;BME280;68797;49.782;19.054;2023-09-19T02:11:43;96500.66;;;19.06;80.07
79331;BME280;68797;49.782;19.054;2023-09-19T02:14:10;96491.97;;;19.03;79.72
79331;BME280;68797;49.782;19.054;2023-09-19T02:16:37;96512.31;;;19.18;79.33
79331;BME280;68797;49.782;19.054;2023-09-19T02:19:04;96511.06;;;19.11;79.44
79331;BME280;68797;49.782;19.054;2023-09-19T02:21:32;96502.28;;;19.09;80.09
79331;BME280;68797;49.782;19.054;2023-09-19T02:23:59;96499.06;;;19.04;80.11
79331;BME280;68797;49.782;19.054;2023-09-19T02:26:26;96498.94;;;19.05;80.34
79331;BME280;68797;49.782;19.054;2023-09-19T02:28:54;96498.09;;;19.05;80.68
79331;BME280;68797;49.782;19.054;2023-09-19T02:31:21;96496.91;;;19.09;80.67
79331;BME280;68797;49.782;19.054;2023-09-19T02:33:48;96498.22;;;19.14;80.18
79331;BME280;68797;49.782;19.054;2023-09-19T02:36:15;96488.94;;;19.07;80.43
79331;BME280;68797;49.782;19.054;2023-09-19T02:38:43;96487.47;;;19.03;81.07
79331;BME280;68797;49.782;19.054;2023-09-19T02:41:10;96492.97;;;19.02;80.95
79331;BME280;68797;49.782;19.054;2023-09-19T02:43:38;96483.19;;;19.01;81.18
79331;BME280;68797;49.782;19.054;2023-09-19T02:46:05;96484.75;;;19.03;80.43
79331;BME280;68797;49.782;19.054;2023-09-19T02:48:32;96484.31;;;19.09;81.62
79331;BME280;68797;49.782;19.054;2023-09-19T02:51:00;96475.25;;;19.10;81.22
79331;BME280;68797;49.782;19.054;2023-09-19T02:53:28;96477.44;;;19.05;80.79
79331;BME280;68797;49.782;19.054;2023-09-19T02:55:55;96472.56;;;18.99;80.58
79331;BME280;68797;49.782;19.054;2023-09-19T02:58:22;96464.59;;;18.98;80.74
79331;BME280;68797;49.782;19.054;2023-09-19T03:00:50;96471.19;;;19.05;80.71
79331;BME280;68797;49.782;19.054;2023-09-19T03:03:18;96471.84;;;19.08;81.06
79331;BME280;68797;49.782;19.054;2023-09-19T03:05:45;96466.47;;;19.08;80.19
79331;BME280;68797;49.782;19.054;2023-09-19T03:08:14;96481.38;;;19.12;80.88
79331;BME280;68797;49.782;19.054;2023-09-19T03:10:48;96476.09;;;19.11;80.93
79331;BME280;68797;49.782;19.054;2023-09-19T03:13:15;96468.78;;;19.13;81.13
79331;BME280;68797;49.782;19.054;2023-09-19T03:15:42;96476.09;;;19.11;81.46
79331;BME280;68797;49.782;19.054;2023-09-19T03:18:20;96463.25;;;19.03;80.39
79331;BME280;68797;49.782;19.054;2023-09-19T03:20:54;96462.41;;;19.03;81.21
79331;BME280;68797;49.782;19.054;2023-09-19T03:23:24;96459.09;;;18.99;82.77
79331;BME280;68797;49.782;19.054;2023-09-19T03:25:52;96460.69;;;19.02;82.07
79331;BME280;68797;49.782;19.054;2023-09-19T03:28:19;96469.50;;;19.04;82.72
79331;BME280;68797;49.782;19.054;2023-09-19T03:31:05;96461.91;;;18.98;83.72
79331;BME280;68797;49.782;19.054;2023-09-19T03:33:34;96461.91;;;18.98;83.33
79331;BME280;68797;49.782;19.054;2023-09-19T03:36:02;96458.22;;;18.88;83.92
79331;BME280;68797;49.782;19.054;2023-09-19T03:38:33;96458.84;;;18.91;83.71
79331;BME280;68797;49.782;19.054;2023-09-19T03:41:01;96460.53;;;18.81;83.16
79331;BME280;68797;49.782;19.054;2023-09-19T03:43:28;96465.81;;;18.94;82.66
79331;BME280;68797;49.782;19.054;2023-09-19T03:45:55;96460.81;;;19.00;82.20
79331;BME280;68797;49.782;19.054;2023-09-19T03:48:23;96476.34;;;18.97;83.63
79331;BME280;68797;49.782;19.054;2023-09-19T03:50:51;96470.97;;;19.08;83.68
79331;BME280;68797;49.782;19.054;2023-09-19T03:53:19;96472.16;;;18.93;86.66
79331;BME280;68797;49.782;19.054;2023-09-19T03:55:46;96464.31;;;18.78;87.89
79331;BME280;68797;49.782;19.054;2023-09-19T03:58:13;96480.91;;;18.72;91.89
79331;BME280;68797;49.782;19.054;2023-09-19T04:00:39;96480.16;;;18.70;93.01
79331;BME280;68797;49.782;19.054;2023-09-19T04:03:07;96472.34;;;18.67;92.55
79331;BME280;68797;49.782;19.054;2023-09-19T04:05:34;96473.16;;;18.56;95.52
79331;BME280;68797;49.782;19.054;2023-09-19T04:08:01;96466.88;;;18.45;96.58
79331;BME280;68797;49.782;19.054;2023-09-19T04:10:46;96472.38;;;18.43;97.39
79331;BME280;68797;49.782;19.054;2023-09-19T04:13:13;96471.59;;;18.30;98.50
79331;BME280;68797;49.782;19.054;2023-09-19T04:15:39;96474.72;;;18.24;100.00
79331;BME280;68797;49.782;19.054;2023-09-19T04:18:07;96489.16;;;18.34;100.00
79331;BME280;68797;49.782;19.054;2023-09-19T04:20:33;96484.59;;;18.23;100.00
79331;BME280;68797;49.782;19.054;2023-09-19T04:23:00;96493.34;;;18.14;100.00
79331;BME280;68797;49.782;19.054;2023-09-19T04:25:53;96497.25;;;18.10;100.00
79331;BME280;68797;49.782;19.054;2023-09-19T04:28:20;96499.19;;;17.95;100.00
79331;BME280;68797;49.782;19.054;2023-09-19T04:30:46;96497.91;;;18.01;100.00
79331;BME280;68797;49.782;19.054;2023-09-19T04:33:13;96501.22;;;18.05;100.00
79331;BME280;68797;49.782;19.054;2023-09-19T04:35:40;96495.34;;;17.99;100.00
79331;BME280;68797;49.782;19.054;2023-09-19T04:38:08;96488.25;;;17.98;100.00
79331;BME280;68797;49.782;19.054;2023-09-19T04:40:36;96491.28;;;17.94;100.00
79331;BME280;68797;49.782;19.054;2023-09-19T04:43:14;96485.16;;;17.92;100.00
79331;BME280;68797;49.782;19.054;2023-09-19T04:45:43;96489.25;;;17.97;100.00
79331;BME280;68797;49.782;19.054;2023-09-19T04:48:11;96477.09;;;17.92;100.00
79331;BME280;68797;49.782;19.054;2023-09-19T04:50:42;96471.34;;;17.85;100.00
79331;BME280;68797;49.782;19.054;2023-09-19T04:53:12;96472.41;;;17.83;100.00
79331;BME280;68797;49.782;19.054;2023-09-19T04:55:42;96479.59;;;17.82;100.00
79331;BME280;68797;49.782;19.054;2023-09-19T04:58:42;96480.81;;;17.78;100.00
79331;BME280;68797;49.782;19.054;2023-09-19T05:01:13;96492.59;;;17.88;100.00
79331;BME280;68797;49.782;19.054;2023-09-19T05:03:42;96492.78;;;17.98;100.00
79331;BME280;68797;49.782;19.054;2023-09-19T05:06:26;96502.06;;;17.81;100.00
79331;BME280;68797;49.782;19.054;2023-09-19T05:08:53;96520.06;;;17.92;100.00
79331;BME280;68797;49.782;19.054;2023-09-19T05:11:20;96507.53;;;17.80;100.00
79331;BME280;68797;49.782;19.054;2023-09-19T05:13:58;96526.94;;;17.83;100.00
79331;BME280;68797;49.782;19.054;2023-09-19T05:16:29;96528.03;;;17.81;100.00
79331;BME280;68797;49.782;19.054;2023-09-19T05:19:02;96519.00;;;17.82;100.00
79331;BME280;68797;49.782;19.054;2023-09-19T05:21:30;96519.25;;;17.79;100.00
79331;BME280;68797;49.782;19.054;2023-09-19T05:23:57;96521.41;;;17.74;100.00
79331;BME280;68797;49.782;19.054;2023-09-19T05:26:25;96523.97;;;17.75;100.00
79331;BME280;68797;49.782;19.054;2023-09-19T05:28:52;96533.00;;;17.74;100.00
79331;BME280;68797;49.782;19.054;2023-09-19T05:31:19;96533.09;;;17.73;100.00
79331;BME280;68797;49.782;19.054;2023-09-19T05:33:46;96537.06;;;17.80;100.00
79331;BME280;68797;49.782;19.054;2023-09-19T05:36:13;96536.50;;;17.87;100.00
79331;BME280;68797;49.782;19.054;2023-09-19T05:38:45;96547.53;;;17.95;100.00
79331;BME280;68797;49.782;19.054;2023-09-19T05:41:40;96533.41;;;17.81;100.00
79331;BME280;68797;49.782;19.054;2023-09-19T05:44:08;96546.38;;;17.87;100.00
79331;BME280;68797;49.782;19.054;2023-09-19T05:46:35;96542.66;;;17.77;100.00
79331;BME280;68797;49.782;19.054;2023-09-19T05:49:02;96553.03;;;17.81;100.00
79331;BME280;68797;49.782;19.054;2023-09-19T05:51:29;96542.66;;;17.77;100.00
79331;BME280;68797;49.782;19.054;2023-09-19T05:53:56;96551.63;;;17.88;100.00
79331;BME280;68797;49.782;19.054;2023-09-19T05:56:28;96542.66;;;17.77;100.00
79331;BME280;68797;49.782;19.054;2023-09-19T05:58:58;96547.66;;;17.81;100.00
79331;BME280;68797;49.782;19.054;2023-09-19T06:01:25;96552.41;;;17.78;100.00
79331;BME280;68797;49.782;19.054;2023-09-19T06:03:53;96571.59;;;17.84;100.00
79331;BME280;68797;49.782;19.054;2023-09-19T06:06:20;96563.47;;;17.73;100.00
79331;BME280;68797;49.782;19.054;2023-09-19T06:08:48;96575.38;;;17.82;100.00
79331;BME280;68797;49.782;19.054;2023-09-19T06:11:16;96575.72;;;17.77;100.00
79331;BME280;68797;49.782;19.054;2023-09-19T06:13:46;96586.97;;;17.57;100.00
79331;BME280;68797;49.782;19.054;2023-09-19T06:16:17;96586.31;;;17.53;100.00
79331;BME280;68797;49.782;19.054;2023-09-19T06:18:46;96594.69;;;17.23;100.00
79331;BME280;68797;49.782;19.054;2023-09-19T06:21:13;96613.84;;;17.04;100.00
79331;BME280;68797;49.782;19.054;2023-09-19T06:23:39;96630.66;;;16.94;100.00
79331;BME280;68797;49.782;19.054;2023-09-19T06:26:07;96624.59;;;16.77;100.00
79331;BME280;68797;49.782;19.054;2023-09-19T06:28:34;96644.22;;;16.78;100.00
79331;BME280;68797;49.782;19.054;2023-09-19T06:31:02;96649.59;;;16.64;100.00
79331;BME280;68797;49.782;19.054;2023-09-19T06:33:29;96665.75;;;16.76;100.00
79331;BME280;68797;49.782;19.054;2023-09-19T06:35:57;96667.25;;;16.80;100.00
79331;BME280;68797;49.782;19.054;2023-09-19T06:38:26;96672.84;;;16.77;100.00
79331;BME280;68797;49.782;19.054;2023-09-19T06:40:53;96674.75;;;16.75;100.00
79331;BME280;68797;49.782;19.054;2023-09-19T06:43:20;96664.53;;;16.68;100.00
79331;BME280;68797;49.782;19.054;2023-09-19T06:45:47;96677.44;;;16.75;100.00
79331;BME280;68797;49.782;19.054;2023-09-19T06:48:14;96683.81;;;16.87;100.00
79331;BME280;68797;49.782;19.054;2023-09-19T06:50:41;96690.72;;;16.77;100.00
79331;BME280;68797;49.782;19.054;2023-09-19T06:53:10;96689.97;;;16.61;100.00
79331;BME280;68797;49.782;19.054;2023-09-19T06:55:37;96690.81;;;16.61;100.00
79331;BME280;68797;49.782;19.054;2023-09-19T06:58:03;96699.44;;;16.66;100.00
79331;BME280;68797;49.782;19.054;2023-09-19T07:00:32;96689.09;;;16.60;100.00
79331;BME280;68797;49.782;19.054;2023-09-19T07:03:03;96681.50;;;16.54;100.00
79331;BME280;68797;49.782;19.054;2023-09-19T07:05:31;96684.31;;;16.65;100.00
79331;BME280;68797;49.782;19.054;2023-09-19T07:07:59;96669.59;;;16.58;100.00
79331;BME280;68797;49.782;19.054;2023-09-19T07:10:27;96663.13;;;16.48;100.00
79331;BME280;68797;49.782;19.054;2023-09-19T07:13:04;96665.81;;;16.48;100.00
79331;BME280;68797;49.782;19.054;2023-09-19T07:15:35;96676.56;;;16.61;100.00
79331;BME280;68797;49.782;19.054;2023-09-19T07:18:06;96676.28;;;16.65;100.00
79331;BME280;68797;49.782;19.054;2023-09-19T07:20:32;96667.78;;;16.59;100.00
79331;BME280;68797;49.782;19.054;2023-09-19T07:23:04;96686.53;;;16.59;100.00
79331;BME280;68797;49.782;19.054;2023-09-19T07:25:31;96692.09;;;16.70;100.00
79331;BME280;68797;49.782;19.054;2023-09-19T07:27:58;96681.06;;;16.60;100.00
79331;BME280;68797;49.782;19.054;2023-09-19T07:30:26;96688.81;;;16.65;100.00
79331;BME280;68797;49.782;19.054;2023-09-19T07:32:54;96702.22;;;16.65;100.00
79331;BME280;68797;49.782;19.054;2023-09-19T07:35:21;96704.63;;;16.69;100.00
79331;BME280;68797;49.782;19.054;2023-09-19T07:37:51;96691.97;;;16.71;100.00
79331;BME280;68797;49.782;19.054;2023-09-19T07:40:18;96705.63;;;16.81;100.00
79331;BME280;68797;49.782;19.054;2023-09-19T07:42:47;96699.69;;;16.90;100.00
79331;BME280;68797;49.782;19.054;2023-09-19T07:45:14;96702.56;;;16.87;100.00
79331;BME280;68797;49.782;19.054;2023-09-19T07:47:48;96699.34;;;16.95;100.00
79331;BME280;68797;49.782;19.054;2023-09-19T07:50:16;96707.16;;;17.12;100.00
79331;BME280;68797;49.782;19.054;2023-09-19T07:52:47;96732.69;;;17.18;100.00
79331;BME280;68797;49.782;19.054;2023-09-19T07:55:14;96732.81;;;17.29;100.00
79331;BME280;68797;49.782;19.054;2023-09-19T07:57:44;96724.84;;;17.14;100.00
79331;BME280;68797;49.782;19.054;2023-09-19T08:00:11;96739.06;;;17.29;100.00
79331;BME280;68797;49.782;19.054;2023-09-19T08:02:39;96737.19;;;17.17;100.00
79331;BME280;68797;49.782;19.054;2023-09-19T08:08:34;96754.28;;;17.29;100.00
79331;BME280;68797;49.782;19.054;2023-09-19T08:11:15;96763.41;;;17.39;100.00
79331;BME280;68797;49.782;19.054;2023-09-19T08:13:48;96761.81;;;17.36;100.00
79331;BME280;68797;49.782;19.054;2023-09-19T08:16:16;96760.09;;;17.35;100.00
79331;BME280;68797;49.782;19.054;2023-09-19T08:18:47;96768.56;;;17.29;100.00
79331;BME280;68797;49.782;19.054;2023-09-19T08:21:14;96774.53;;;17.20;100.00
79331;BME280;68797;49.782;19.054;2023-09-19T08:23:42;96772.25;;;17.14;100.00
79331;BME280;68797;49.782;19.054;2023-09-19T08:26:09;96786.88;;;17.23;100.00
79331;BME280;68797;49.782;19.054;2023-09-19T08:28:36;96785.81;;;17.25;100.00
79331;BME280;68797;49.782;19.054;2023-09-19T08:31:05;96794.56;;;17.14;100.00
79331;BME280;68797;49.782;19.054;2023-09-19T08:33:32;96786.72;;;17.11;100.00
79331;BME280;68797;49.782;19.054;2023-09-19T08:36:04;96788.97;;;17.18;100.00
79331;BME280;68797;49.782;19.054;2023-09-19T08:38:35;96778.25;;;17.18;100.00
79331;BME280;68797;49.782;19.054;2023-09-19T08:41:07;96803.22;;;17.32;100.00
79331;BME280;68797;49.782;19.054;2023-09-19T08:43:35;96798.06;;;17.29;100.00
79331;BME280;68797;49.782;19.054;2023-09-19T08:48:31;96806.41;;;17.25;100.00
79331;BME280;68797;49.782;19.054;2023-09-19T08:51:15;96802.22;;;17.21;100.00
79331;BME280;68797;49.782;19.054;2023-09-19T08:53:51;96808.25;;;17.37;100.00
79331;BME280;68797;49.782;19.054;2023-09-19T08:56:29;96817.91;;;17.39;100.00
79331;BME280;68797;49.782;19.054;2023-09-19T08:59:03;96809.00;;;17.39;100.00
79331;BME280;68797;49.782;19.054;2023-09-19T09:01:40;96808.78;;;17.29;100.00
79331;BME280;68797;49.782;19.054;2023-09-19T09:04:11;96824.41;;;17.23;100.00
79331;BME280;68797;49.782;19.054;2023-09-19T09:06:41;96815.03;;;17.16;100.00
79331;BME280;68797;49.782;19.054;2023-09-19T09:09:10;96829.28;;;17.30;100.00
79331;BME280;68797;49.782;19.054;2023-09-19T09:11:40;96821.66;;;17.37;100.00
79331;BME280;68797;49.782;19.054;2023-09-19T09:14:07;96819.81;;;17.25;100.00
79331;BME280;68797;49.782;19.054;2023-09-19T09:16:34;96821.41;;;17.27;100.00
79331;BME280;68797;49.782;19.054;2023-09-19T09:19:05;96820.06;;;17.34;100.00
79331;BME280;68797;49.782;19.054;2023-09-19T09:21:32;96834.00;;;17.39;100.00
79331;BME280;68797;49.782;19.054;2023-09-19T09:27:40;96841.34;;;17.50;99.20
79331;BME280;68797;49.782;19.054;2023-09-19T09:30:07;96834.16;;;17.51;99.77
79331;BME280;68797;49.782;19.054;2023-09-19T09:32:36;96842.69;;;17.57;99.68
79331;BME280;68797;49.782;19.054;2023-09-19T09:35:07;96834.38;;;17.48;96.98
79331;BME280;68797;49.782;19.054;2023-09-19T09:37:37;96834.28;;;17.49;98.62
79331;BME280;68797;49.782;19.054;2023-09-19T09:40:09;96845.22;;;17.46;100.00
79331;BME280;68797;49.782;19.054;2023-09-19T09:42:39;96847.25;;;17.42;100.00
79331;BME280;68797;49.782;19.054;2023-09-19T09:45:19;96855.28;;;17.42;99.84
79331;BME280;68797;49.782;19.054;2023-09-19T09:47:55;96845.53;;;17.27;98.74
79331;BME280;68797;49.782;19.054;2023-09-19T09:50:35;96847.03;;;17.19;99.73
79331;BME280;68797;49.782;19.054;2023-09-19T09:53:24;96858.09;;;17.27;99.91
79331;BME280;68797;49.782;19.054;2023-09-19T09:56:08;96839.75;;;17.21;100.00
79331;BME280;68797;49.782;19.054;2023-09-19T09:58:58;96838.03;;;17.20;100.00
79331;BME280;68797;49.782;19.054;2023-09-19T10:01:26;96851.50;;;17.18;100.00
79331;BME280;68797;49.782;19.054;2023-09-19T10:03:58;96848.53;;;17.23;100.00
79331;BME280;68797;49.782;19.054;2023-09-19T10:06:26;96855.25;;;17.30;100.00
79331;BME280;68797;49.782;19.054;2023-09-19T10:09:05;96867.75;;;17.43;97.08
79331;BME280;68797;49.782;19.054;2023-09-19T10:11:45;96864.47;;;17.38;100.00
79331;BME280;68797;49.782;19.054;2023-09-19T10:14:16;96861.63;;;17.27;100.00
79331;BME280;68797;49.782;19.054;2023-09-19T10:16:47;96861.19;;;17.21;100.00
79331;BME280;68797;49.782;19.054;2023-09-19T10:19:30;96876.38;;;17.34;100.00
79331;BME280;68797;49.782;19.054;2023-09-19T10:22:01;96879.38;;;17.30;100.00
79331;BME280;68797;49.782;19.054;2023-09-19T10:24:29;96860.97;;;17.24;100.00
79331;BME280;68797;49.782;19.054;2023-09-19T10:26:59;96874.03;;;17.16;100.00
79331;BME280;68797;49.782;19.054;2023-09-19T10:29:27;96873.25;;;17.13;100.00
79331;BME280;68797;49.782;19.054;2023-09-19T10:31:58;96879.38;;;17.16;100.00
79331;BME280;68797;49.782;19.054;2023-09-19T10:34:29;96883.59;;;17.20;100.00
79331;BME280;68797;49.782;19.054;2023-09-19T10:36:57;96878.31;;;17.18;100.00
79331;BME280;68797;49.782;19.054;2023-09-19T10:39:24;96886.28;;;17.20;100.00
79331;BME280;68797;49.782;19.054;2023-09-19T10:41:55;96887.16;;;17.20;100.00
79331;BME280;68797;49.782;19.054;2023-09-19T10:44:25;96888.50;;;17.13;100.00
79331;BME280;68797;49.782;19.054;2023-09-19T10:46:52;96883.50;;;17.07;97.37
79331;BME280;68797;49.782;19.054;2023-09-19T10:49:21;96890.78;;;17.19;100.00
79331;BME280;68797;49.782;19.054;2023-09-19T10:51:51;96898.50;;;17.38;100.00
79331;BME280;68797;49.782;19.054;2023-09-19T10:54:27;96903.56;;;17.28;100.00
79331;BME280;68797;49.782;19.054;2023-09-19T10:56:55;96900.34;;;17.23;100.00
79331;BME280;68797;49.782;19.054;2023-09-19T10:59:25;96903.84;;;17.38;100.00
79331;BME280;68797;49.782;19.054;2023-09-19T11:01:58;96897.13;;;17.45;100.00
79331;BME280;68797;49.782;19.054;2023-09-19T11:04:32;96906.44;;;17.39;100.00
79331;BME280;68797;49.782;19.054;2023-09-19T11:07:09;96900.22;;;17.39;100.00
79331;BME280;68797;49.782;19.054;2023-09-19T11:09:54;96911.19;;;17.49;99.25
79331;BME280;68797;49.782;19.054;2023-09-19T11:25:42;96905.09;;;17.88;100.00
79331;BME280;68797;49.782;19.054;2023-09-19T11:30:56;96904.78;;;18.05;99.72
79331;BME280;68797;49.782;19.054;2023-09-19T11:33:31;96920.63;;;18.22;100.00
79331;BME280;68797;49.782;19.054;2023-09-19T11:36:18;96926.97;;;18.21;97.60
79331;BME280;68797;49.782;19.054;2023-09-19T11:43:37;96921.63;;;18.47;97.31
79331;BME280;68797;49.782;19.054;2023-09-19T11:46:07;96926.72;;;18.51;96.35
79331;BME280;68797;49.782;19.054;2023-09-19T11:48:34;96912.72;;;18.59;97.21
79331;BME280;68797;49.782;19.054;2023-09-19T11:51:01;96919.72;;;18.62;95.51
79331;BME280;68797;49.782;19.054;2023-09-19T11:53:33;96911.72;;;18.74;94.95
79331;BME280;68797;49.782;19.054;2023-09-19T11:56:05;96905.56;;;18.72;95.01
79331;BME280;68797;49.782;19.054;2023-09-19T11:58:34;96927.06;;;18.72;94.36
79331;BME280;68797;49.782;19.054;2023-09-19T12:01:05;96923.41;;;18.73;95.87
79331;BME280;68797;49.782;19.054;2023-09-19T12:03:42;96916.78;;;18.39;93.65
79331;BME280;68797;49.782;19.054;2023-09-19T12:06:12;96919.59;;;18.38;96.09
79331;BME280;68797;49.782;19.054;2023-09-19T12:08:44;96942.00;;;18.64;97.23
79331;BME280;68797;49.782;19.054;2023-09-19T12:11:16;96936.56;;;18.51;96.85
79331;BME280;68797;49.782;19.054;2023-09-19T12:13:44;96941.63;;;18.43;95.51
79331;BME280;68797;49.782;19.054;2023-09-19T12:16:14;96940.31;;;18.36;96.40
79331;BME280;68797;49.782;19.054;2023-09-19T12:18:44;96926.53;;;18.27;96.26
79331;BME280;68797;49.782;19.054;2023-09-19T12:21:43;96952.88;;;18.22;95.58
79331;BME280;68797;49.782;19.054;2023-09-19T12:24:13;96942.84;;;18.12;96.15
79331;BME280;68797;49.782;19.054;2023-09-19T12:27:11;96955.69;;;18.34;99.12
79331;BME280;68797;49.782;19.054;2023-09-19T12:29:48;96932.91;;;18.39;97.15
79331;BME280;68797;49.782;19.054;2023-09-19T12:32:15;96934.31;;;18.45;93.97
79331;BME280;68797;49.782;19.054;2023-09-19T12:34:52;96942.06;;;18.49;96.10
79331;BME280;68797;49.782;19.054;2023-09-19T12:37:23;96937.16;;;18.69;95.14
79331;BME280;68797;49.782;19.054;2023-09-19T12:40:05;96936.28;;;19.06;95.14
79331;BME280;68797;49.782;19.054;2023-09-19T12:42:46;96920.75;;;19.35;95.08
79331;BME280;68797;49.782;19.054;2023-09-19T12:45:14;96933.97;;;19.64;91.49
79331;BME280;68797;49.782;19.054;2023-09-19T12:51:06;96932.88;;;19.66;90.97
79331;BME280;68797;49.782;19.054;2023-09-19T12:53:35;96923.31;;;19.50;87.21
79331;BME280;68797;49.782;19.054;2023-09-19T12:56:12;96923.66;;;19.45;83.02
79331;BME280;68797;49.782;19.054;2023-09-19T12:58:57;96917.66;;;19.41;88.25
79331;BME280;68797;49.782;19.054;2023-09-19T13:01:36;96923.03;;;19.41;89.86
79331;BME280;68797;49.782;19.054;2023-09-19T13:06:49;96923.28;;;19.13;85.53
79331;BME280;68797;49.782;19.054;2023-09-19T13:09:17;96917.28;;;19.09;89.46
79331;BME280;68797;49.782;19.054;2023-09-19T13:11:50;96918.84;;;19.25;87.67
79331;BME280;68797;49.782;19.054;2023-09-19T13:14:22;96920.72;;;19.48;87.72
79331;BME280;68797;49.782;19.054;2023-09-19T13:17:04;96929.47;;;19.52;85.65
79331;BME280;68797;49.782;19.054;2023-09-19T13:19:43;96927.75;;;19.38;87.08
79331;BME280;68797;49.782;19.054;2023-09-19T13:22:45;96927.97;;;19.35;90.84
79331;BME280;68797;49.782;19.054;2023-09-19T13:25:17;96915.63;;;19.32;87.95
79331;BME280;68797;49.782;19.054;2023-09-19T13:27:51;96922.78;;;19.44;84.25
79331;BME280;68797;49.782;19.054;2023-09-19T13:30:18;96923.03;;;19.41;88.54
79331;BME280;68797;49.782;19.054;2023-09-19T13:32:46;96914.50;;;19.48;84.69
79331;BME280;68797;49.782;19.054;2023-09-19T13:35:14;96913.00;;;19.56;84.51
79331;BME280;68797;49.782;19.054;2023-09-19T13:37:42;96922.00;;;19.68;82.51
79331;BME280;68797;49.782;19.054;2023-09-19T13:40:10;96912.53;;;19.50;84.07
79331;BME280;68797;49.782;19.054;2023-09-19T13:42:39;96919.16;;;19.33;85.08
79331;BME280;68797;49.782;19.054;2023-09-19T13:45:07;96905.94;;;19.30;85.81
79331;BME280;68797;49.782;19.054;2023-09-19T13:47:38;96914.09;;;19.28;87.27
79331;BME280;68797;49.782;19.054;2023-09-19T13:50:05;96915.75;;;19.18;89.67
79331;BME280;68797;49.782;19.054;2023-09-19T13:52:33;96913.28;;;19.02;89.12